createdAt,value
2017-09-26T00:00:13.395Z,97.30
2017-09-26T00:02:41.019Z,97.20
2017-09-26T00:05:08.706Z,97.10
2017-09-26T00:07:36.329Z,96.90
2017-09-26T00:10:04.749Z,97.00
2017-09-26T00:12:32.399Z,97.00
2017-09-26T00:15:00.951Z,97.10
2017-09-26T00:17:29.364Z,97.10
2017-09-26T00:19:56.984Z,97.00
2017-09-26T00:22:25.467Z,97.00
2017-09-26T00:24:53.860Z,97.00
2017-09-26T00:27:22.252Z,96.90
2017-09-26T00:29:49.904Z,96.90
2017-09-26T00:32:17.536Z,96.80
2017-09-26T00:34:45.944Z,96.70
2017-09-26T00:37:14.335Z,96.70
2017-09-26T00:39:42.004Z,96.70
2017-09-26T00:42:09.677Z,96.60
2017-09-26T00:44:37.303Z,96.50
2017-09-26T00:47:05.729Z,96.60
2017-09-26T00:49:33.364Z,96.60
2017-09-26T00:52:02.172Z,96.60
2017-09-26T00:54:29.799Z,96.80
2017-09-26T00:56:58.236Z,96.70
2017-09-26T00:59:25.877Z,96.70
2017-09-26T01:01:53.504Z,96.90
2017-09-26T01:04:21.932Z,97.30
2017-09-26T01:06:50.310Z,97.20
2017-09-26T01:09:17.969Z,97.20
2017-09-26T01:11:45.591Z,97.30
2017-09-26T01:14:14.184Z,97.40
2017-09-26T01:16:41.984Z,97.30
2017-09-26T01:19:09.855Z,97.40
2017-09-26T01:21:37.822Z,97.40
2017-09-26T01:24:05.502Z,97.30
2017-09-26T01:26:34.069Z,97.30
2017-09-26T01:29:03.962Z,97.30
2017-09-26T01:31:31.632Z,97.30
2017-09-26T01:33:59.251Z,97.20
2017-09-26T01:36:26.875Z,97.30
2017-09-26T01:38:54.520Z,97.20
2017-09-26T01:41:22.183Z,97.30
2017-09-26T01:43:49.843Z,97.30
2017-09-26T01:46:17.524Z,97.30
2017-09-26T01:48:45.287Z,97.10
2017-09-26T01:51:12.912Z,97.10
2017-09-26T01:53:40.555Z,96.90
2017-09-26T01:56:10.548Z,96.70
2017-09-26T01:58:40.719Z,96.70
2017-09-26T02:01:08.400Z,96.80
2017-09-26T02:03:36.032Z,96.90
2017-09-26T02:06:04.748Z,97.40
2017-09-26T02:08:32.373Z,97.30
2017-09-26T02:11:01.712Z,97.80
2017-09-26T02:13:29.345Z,97.80
2017-09-26T02:15:57.856Z,98.00
2017-09-26T02:18:25.516Z,98.00
2017-09-26T02:20:53.217Z,98.00
2017-09-26T02:23:20.960Z,97.90
2017-09-26T02:25:48.599Z,97.70
2017-09-26T02:28:16.248Z,97.60
2017-09-26T02:30:44.651Z,97.70
2017-09-26T02:33:12.319Z,97.70
2017-09-26T02:35:39.948Z,98.00
2017-09-26T02:38:08.340Z,98.00
2017-09-26T02:40:35.979Z,97.90
2017-09-26T02:43:04.704Z,97.70
2017-09-26T02:45:32.351Z,97.70
2017-09-26T02:48:01.672Z,98.10
2017-09-26T02:50:29.436Z,98.00
2017-09-26T02:52:57.058Z,98.10
2017-09-26T02:55:25.451Z,98.40
2017-09-26T02:57:53.955Z,98.60
2017-09-26T03:00:22.204Z,98.50
2017-09-26T03:02:50.626Z,98.30
2017-09-26T03:05:18.260Z,98.30
2017-09-26T03:07:45.916Z,98.20
2017-09-26T03:10:14.312Z,98.40
2017-09-26T03:12:41.935Z,98.40
2017-09-26T03:15:09.579Z,98.30
2017-09-26T03:17:37.211Z,98.40
2017-09-26T03:20:04.856Z,98.50
2017-09-26T03:22:32.483Z,98.50
2017-09-26T03:25:01.121Z,98.70
2017-09-26T03:27:28.749Z,98.60
2017-09-26T03:29:57.160Z,98.60
2017-09-26T03:32:24.924Z,98.50
2017-09-26T03:34:53.033Z,98.50
2017-09-26T03:37:20.681Z,98.50
2017-09-26T03:39:48.304Z,98.50
2017-09-26T03:42:15.984Z,98.50
2017-09-26T03:44:43.649Z,98.60
2017-09-26T03:47:12.025Z,98.50
2017-09-26T03:49:39.702Z,98.40
2017-09-26T03:52:07.360Z,98.50
2017-09-26T03:54:35.013Z,98.50
2017-09-26T03:57:04.815Z,98.60
2017-09-26T03:59:32.483Z,98.60
2017-09-26T04:02:00.109Z,98.60
2017-09-26T04:04:28.511Z,98.50
2017-09-26T04:06:56.168Z,98.50
2017-09-26T04:09:24.564Z,98.70
2017-09-26T04:11:52.207Z,98.70
2017-09-26T04:14:20.600Z,98.50
2017-09-26T04:16:48.240Z,98.50
2017-09-26T04:19:16.665Z,98.60
2017-09-26T04:21:44.305Z,98.60
2017-09-26T04:24:11.988Z,98.70
2017-09-26T04:26:39.616Z,98.70
2017-09-26T04:29:08.063Z,98.50
2017-09-26T04:31:35.716Z,98.50
2017-09-26T04:34:04.112Z,98.50
2017-09-26T04:36:31.776Z,98.50
2017-09-26T04:39:01.836Z,98.60
2017-09-26T04:41:29.932Z,98.60
2017-09-26T04:43:57.720Z,98.60
2017-09-26T04:46:25.348Z,98.70
2017-09-26T04:48:53.027Z,98.80
2017-09-26T04:51:20.652Z,99.00
2017-09-26T04:53:49.799Z,99.20
2017-09-26T04:56:17.530Z,99.20
2017-09-26T04:58:45.155Z,99.20
2017-09-26T05:01:13.579Z,99.40
2017-09-26T05:03:41.189Z,99.30
2017-09-26T05:06:10.272Z,99.50
2017-09-26T05:08:37.954Z,99.50
2017-09-26T05:11:06.328Z,99.70
2017-09-26T05:13:33.932Z,99.20
2017-09-26T05:16:03.788Z,99.20
2017-09-26T05:18:31.400Z,99.20
2017-09-26T05:20:58.971Z,99.10
2017-09-26T05:23:26.591Z,99.10
2017-09-26T05:25:54.248Z,99.00
2017-09-26T05:28:21.911Z,99.00
2017-09-26T05:30:49.504Z,98.90
2017-09-26T05:33:17.080Z,98.80
2017-09-26T05:35:44.694Z,98.70
2017-09-26T05:38:12.296Z,98.70
2017-09-26T05:40:39.868Z,98.60
2017-09-26T05:43:07.484Z,98.50
2017-09-26T05:45:35.143Z,98.40
2017-09-26T05:48:04.840Z,98.20
2017-09-26T05:50:32.512Z,98.20
2017-09-26T05:53:00.085Z,98.00
2017-09-26T05:55:28.474Z,97.90
2017-09-26T05:57:56.812Z,98.20
2017-09-26T06:00:24.395Z,98.20
2017-09-26T06:02:51.993Z,98.40
2017-09-26T06:05:19.573Z,98.30
2017-09-26T06:07:47.187Z,98.10
2017-09-26T06:10:15.527Z,98.00
2017-09-26T06:12:43.100Z,98.40
2017-09-26T06:15:10.704Z,97.90
2017-09-26T06:17:38.401Z,98.10
2017-09-26T06:20:05.997Z,98.20
2017-09-26T06:22:33.595Z,98.30
2017-09-26T06:25:02.048Z,98.00
2017-09-26T06:27:29.643Z,98.00
2017-09-26T06:29:57.228Z,98.10
2017-09-26T06:32:24.823Z,98.00
2017-09-26T06:34:52.395Z,98.00
2017-09-26T06:37:20.764Z,98.10
2017-09-26T06:39:49.100Z,97.60
2017-09-26T06:42:16.704Z,97.60
2017-09-26T06:44:44.271Z,97.10
2017-09-26T06:47:13.372Z,96.50
2017-09-26T06:49:40.968Z,96.50
2017-09-26T06:52:08.552Z,96.20
2017-09-26T06:54:36.169Z,96.70
2017-09-26T06:57:04.820Z,96.30
2017-09-26T06:59:32.496Z,96.30
2017-09-26T07:02:00.065Z,95.60
2017-09-26T07:04:28.427Z,94.80
2017-09-26T07:06:56.000Z,94.70
2017-09-26T07:09:23.668Z,94.30
2017-09-26T07:11:51.324Z,92.60
2017-09-26T07:14:20.829Z,91.50
2017-09-26T07:16:48.403Z,91.50
2017-09-26T07:19:16.741Z,90.70
2017-09-26T07:21:44.345Z,90.60
2017-09-26T07:24:12.680Z,90.60
2017-09-26T07:26:40.276Z,90.60
2017-09-26T07:29:08.104Z,90.40
2017-09-26T07:31:35.985Z,90.60
2017-09-26T07:34:04.671Z,90.00
2017-09-26T07:36:32.241Z,89.90
2017-09-26T07:38:59.837Z,89.70
2017-09-26T07:41:28.190Z,88.00
2017-09-26T07:43:55.856Z,88.00
2017-09-26T07:46:23.516Z,87.50
2017-09-26T07:48:51.382Z,88.50
2017-09-26T07:51:18.956Z,90.00
2017-09-26T07:53:47.325Z,87.50
2017-09-26T07:56:15.682Z,88.20
2017-09-26T07:58:43.253Z,88.20
2017-09-26T08:01:11.435Z,85.40
2017-09-26T08:03:40.359Z,86.20
2017-09-26T08:06:09.243Z,88.40
2017-09-26T08:08:38.164Z,89.50
2017-09-26T08:11:05.737Z,89.50
2017-09-26T08:13:33.328Z,88.30
2017-09-26T08:16:01.926Z,89.60
2017-09-26T08:18:29.528Z,89.50
2017-09-26T08:20:57.104Z,88.80
2017-09-26T08:23:24.710Z,88.30
2017-09-26T08:25:52.280Z,86.30
2017-09-26T08:28:20.640Z,86.00
2017-09-26T08:30:49.024Z,82.70
2017-09-26T08:33:16.612Z,82.80
2017-09-26T08:35:44.948Z,79.00
2017-09-26T08:38:12.632Z,79.00
2017-09-26T08:40:40.209Z,79.70
2017-09-26T08:43:08.977Z,73.50
2017-09-26T08:45:38.048Z,71.40
2017-09-26T08:48:05.629Z,71.30
2017-09-26T08:50:33.225Z,73.00
2017-09-26T08:53:02.876Z,76.00
2017-09-26T08:55:31.232Z,76.60
2017-09-26T08:57:58.797Z,76.40
2017-09-26T09:00:26.400Z,78.60
2017-09-26T09:02:53.972Z,78.70
2017-09-26T09:05:22.347Z,79.60
2017-09-26T09:07:50.240Z,79.30
2017-09-26T09:10:17.836Z,78.60
2017-09-26T09:12:45.411Z,79.10
2017-09-26T09:15:13.097Z,80.50
2017-09-26T09:17:40.680Z,81.90
2017-09-26T09:20:09.037Z,84.30
2017-09-26T09:22:36.632Z,84.20
2017-09-26T09:25:04.204Z,86.40
2017-09-26T09:27:31.796Z,86.40
2017-09-26T09:29:59.480Z,85.40
2017-09-26T09:32:27.146Z,85.00
2017-09-26T09:34:54.723Z,85.00
2017-09-26T09:37:23.391Z,84.70
2017-09-26T09:39:50.967Z,84.70
2017-09-26T09:42:19.332Z,85.50
2017-09-26T09:44:46.927Z,85.40
2017-09-26T09:47:14.516Z,86.10
2017-09-26T09:49:42.216Z,87.90
2017-09-26T09:52:09.809Z,87.60
2017-09-26T09:54:38.360Z,86.70
2017-09-26T09:57:05.945Z,86.60
2017-09-26T09:59:34.281Z,78.00
2017-09-26T10:02:04.004Z,77.00
2017-09-26T10:04:31.571Z,76.90
2017-09-26T10:06:59.167Z,72.40
2017-09-26T10:09:26.747Z,69.50
2017-09-26T10:11:54.350Z,65.90
2017-09-26T10:14:21.922Z,69.20
2017-09-26T10:16:50.396Z,70.10
2017-09-26T10:19:17.978Z,70.10
2017-09-26T10:21:46.322Z,68.00
2017-09-26T10:24:14.001Z,68.00
2017-09-26T10:26:41.668Z,65.80
2017-09-26T10:29:09.265Z,68.90
2017-09-26T10:31:36.837Z,71.10
2017-09-26T10:34:04.441Z,68.60
2017-09-26T10:36:32.109Z,63.70
2017-09-26T10:38:59.765Z,60.80
2017-09-26T10:41:28.193Z,61.60
2017-09-26T10:43:56.137Z,61.50
2017-09-26T10:46:24.500Z,64.30
2017-09-26T10:48:53.589Z,66.10
2017-09-26T10:51:21.364Z,66.10
2017-09-26T10:53:49.700Z,66.70
2017-09-26T10:56:17.296Z,66.60
2017-09-26T10:58:45.684Z,66.30
2017-09-26T11:01:13.256Z,66.30
2017-09-26T11:03:41.624Z,69.10
2017-09-26T11:06:09.280Z,69.10
2017-09-26T11:08:36.872Z,71.00
2017-09-26T11:11:04.444Z,68.70
2017-09-26T11:13:32.059Z,71.80
2017-09-26T11:15:59.624Z,76.00
2017-09-26T11:18:27.193Z,74.30
2017-09-26T11:20:54.783Z,77.10
2017-09-26T11:23:22.356Z,77.00
2017-09-26T11:25:49.951Z,76.60
2017-09-26T11:28:17.529Z,73.20
2017-09-26T11:30:45.137Z,75.00
2017-09-26T11:33:12.748Z,74.40
2017-09-26T11:35:40.357Z,74.30
2017-09-26T11:38:07.944Z,77.30
2017-09-26T11:40:35.532Z,77.40
2017-09-26T11:43:04.840Z,78.90
2017-09-26T11:45:32.417Z,78.90
2017-09-26T11:48:02.212Z,78.30
2017-09-26T11:50:29.868Z,78.30
2017-09-26T11:52:58.976Z,79.50
2017-09-26T11:55:26.548Z,79.40
2017-09-26T11:57:54.884Z,76.80
2017-09-26T12:00:22.480Z,76.80
2017-09-26T12:02:50.812Z,72.10
2017-09-26T12:05:18.419Z,72.10
2017-09-26T12:07:46.077Z,72.50
2017-09-26T12:10:13.668Z,72.00
2017-09-26T12:12:41.241Z,71.60
2017-09-26T12:15:09.223Z,73.10
2017-09-26T12:17:36.791Z,74.90
2017-09-26T12:20:04.493Z,75.20
2017-09-26T12:22:32.148Z,76.60
2017-09-26T12:25:00.120Z,77.30
2017-09-26T12:27:27.693Z,74.60
2017-09-26T12:29:56.032Z,74.00
2017-09-26T12:32:23.635Z,73.30
2017-09-26T12:34:51.972Z,72.20
2017-09-26T12:37:19.565Z,72.20
2017-09-26T12:39:47.928Z,74.00
2017-09-26T12:42:15.505Z,73.90
2017-09-26T12:44:43.092Z,74.50
2017-09-26T12:47:10.664Z,72.80
2017-09-26T12:49:38.284Z,73.40
2017-09-26T12:52:05.867Z,69.40
2017-09-26T12:54:34.333Z,61.20
2017-09-26T12:57:03.764Z,61.60
2017-09-26T12:59:31.391Z,61.40
2017-09-26T13:01:58.959Z,56.70
2017-09-26T13:04:26.552Z,53.30
2017-09-26T13:06:54.177Z,55.60
2017-09-26T13:09:21.773Z,55.60
2017-09-26T13:11:49.345Z,59.80
2017-09-26T13:14:17.060Z,63.40
2017-09-26T13:16:44.630Z,61.90
2017-09-26T13:19:12.963Z,62.60
2017-09-26T13:21:40.948Z,62.20
2017-09-26T13:24:08.532Z,64.80
2017-09-26T13:26:36.124Z,67.00
2017-09-26T13:29:04.656Z,68.30
2017-09-26T13:31:32.340Z,68.20
2017-09-26T13:33:59.904Z,67.40
2017-09-26T13:36:27.532Z,67.30
2017-09-26T13:38:55.125Z,64.70
2017-09-26T13:41:22.700Z,64.00
2017-09-26T13:43:51.164Z,59.40
2017-09-26T13:46:18.741Z,59.40
2017-09-26T13:48:47.308Z,60.70
2017-09-26T13:51:14.977Z,60.60
2017-09-26T13:53:42.547Z,60.50
2017-09-26T13:56:10.909Z,62.60
2017-09-26T13:58:38.493Z,62.50
2017-09-26T14:01:06.104Z,62.60
2017-09-26T14:03:33.676Z,63.50
2017-09-26T14:06:02.987Z,63.20
2017-09-26T14:08:30.661Z,63.10
2017-09-26T14:10:58.817Z,59.60
2017-09-26T14:13:26.390Z,59.10
2017-09-26T14:15:54.160Z,59.40
2017-09-26T14:18:21.737Z,59.50
2017-09-26T14:20:50.076Z,63.90
2017-09-26T14:23:17.672Z,63.90
2017-09-26T14:25:46.092Z,67.60
2017-09-26T14:28:13.688Z,67.60
2017-09-26T14:30:41.260Z,69.70
2017-09-26T14:33:08.869Z,69.60
2017-09-26T14:35:36.481Z,68.60
2017-09-26T14:38:04.097Z,68.10
2017-09-26T14:40:31.676Z,69.30
2017-09-26T14:42:59.263Z,68.70
2017-09-26T14:45:27.680Z,71.00
2017-09-26T14:47:55.411Z,71.00
2017-09-26T14:50:24.484Z,71.40
2017-09-26T14:52:52.058Z,71.40
2017-09-26T14:55:19.656Z,70.60
2017-09-26T14:57:48.024Z,72.50
2017-09-26T15:00:16.384Z,73.20
2017-09-26T15:02:44.052Z,73.10
2017-09-26T15:05:11.673Z,73.40
2017-09-26T15:07:39.247Z,74.20
2017-09-26T15:10:06.936Z,74.10
2017-09-26T15:12:34.652Z,73.90
2017-09-26T15:15:04.771Z,74.00
2017-09-26T15:17:32.442Z,74.00
2017-09-26T15:20:01.152Z,74.00
2017-09-26T15:22:28.731Z,72.50
2017-09-26T15:24:56.395Z,72.70
2017-09-26T15:27:24.776Z,73.70
2017-09-26T15:29:52.368Z,73.70
2017-09-26T15:32:19.956Z,73.50
2017-09-26T15:34:47.524Z,74.20
2017-09-26T15:37:15.124Z,74.20
2017-09-26T15:39:42.696Z,74.10
2017-09-26T15:42:11.060Z,75.40
2017-09-26T15:44:38.723Z,75.40
2017-09-26T15:47:06.376Z,74.70
2017-09-26T15:49:33.952Z,75.30
2017-09-26T15:52:02.574Z,75.30
2017-09-26T15:54:30.920Z,75.60
2017-09-26T15:56:59.255Z,74.10
2017-09-26T15:59:26.856Z,74.10
2017-09-26T16:01:55.232Z,72.60
2017-09-26T16:04:22.824Z,72.60
2017-09-26T16:06:50.449Z,72.30
2017-09-26T16:09:18.044Z,73.60
2017-09-26T16:11:45.668Z,74.00
2017-09-26T16:14:13.265Z,74.70
2017-09-26T16:16:40.897Z,75.90
2017-09-26T16:19:08.491Z,75.70
2017-09-26T16:21:36.112Z,76.90
2017-09-26T16:24:05.012Z,78.30
2017-09-26T16:26:33.653Z,79.00
2017-09-26T16:29:02.101Z,79.20
2017-09-26T16:31:30.463Z,79.70
2017-09-26T16:33:58.804Z,79.80
2017-09-26T16:36:26.516Z,79.80
2017-09-26T16:38:54.852Z,80.60
2017-09-26T16:41:22.453Z,80.60
2017-09-26T16:43:50.796Z,81.70
2017-09-26T16:46:18.780Z,81.60
2017-09-26T16:48:46.448Z,81.90
2017-09-26T16:51:14.777Z,84.00
2017-09-26T16:53:42.383Z,84.00
2017-09-26T16:56:10.053Z,85.20
2017-09-26T16:58:37.715Z,85.80
2017-09-26T17:01:05.375Z,86.10
2017-09-26T17:03:32.967Z,87.10
2017-09-26T17:06:02.856Z,89.50
2017-09-26T17:08:30.615Z,89.40
2017-09-26T17:10:58.185Z,90.10
2017-09-26T17:13:25.756Z,90.40
2017-09-26T17:15:54.115Z,90.80
2017-09-26T17:18:21.680Z,90.80
2017-09-26T17:20:49.276Z,91.00
2017-09-26T17:23:16.895Z,91.10
2017-09-26T17:25:44.494Z,91.20
2017-09-26T17:28:12.068Z,91.40
2017-09-26T17:30:39.684Z,91.40
2017-09-26T17:33:07.265Z,91.30
2017-09-26T17:35:35.622Z,91.80
2017-09-26T17:38:04.927Z,91.70
2017-09-26T17:40:32.504Z,91.60
2017-09-26T17:43:01.768Z,91.60
2017-09-26T17:45:29.456Z,91.50
2017-09-26T17:47:57.792Z,91.70
2017-09-26T17:50:25.600Z,91.60
2017-09-26T17:52:53.941Z,91.70
2017-09-26T17:55:21.695Z,91.70
2017-09-26T17:57:49.299Z,91.60
2017-09-26T18:00:16.884Z,92.10
2017-09-26T18:02:45.256Z,92.00
2017-09-26T18:05:13.597Z,91.80
2017-09-26T18:07:41.968Z,91.70
2017-09-26T18:10:09.656Z,91.70
2017-09-26T18:12:37.232Z,91.90
2017-09-26T18:15:05.747Z,92.10
2017-09-26T18:17:33.315Z,92.10
2017-09-26T18:20:02.769Z,92.10
2017-09-26T18:22:31.189Z,92.30
2017-09-26T18:24:58.758Z,92.00
2017-09-26T18:27:26.347Z,92.10
2017-09-26T18:29:53.983Z,92.10
2017-09-26T18:32:21.732Z,92.20
2017-09-26T18:34:49.305Z,92.30
2017-09-26T18:37:16.932Z,92.20
2017-09-26T18:39:45.400Z,92.20
2017-09-26T18:42:13.117Z,92.20
2017-09-26T18:44:40.721Z,92.10
2017-09-26T18:47:08.438Z,92.20
2017-09-26T18:49:36.099Z,92.20
2017-09-26T18:52:04.963Z,92.20
2017-09-26T18:54:33.484Z,92.30
2017-09-26T18:57:02.911Z,92.30
2017-09-26T18:59:30.504Z,92.30
2017-09-26T19:01:58.891Z,92.40
2017-09-26T19:04:27.439Z,92.40
2017-09-26T19:06:55.061Z,92.40
2017-09-26T19:09:22.659Z,92.40
2017-09-26T19:11:50.283Z,92.50
2017-09-26T19:14:18.991Z,92.60
2017-09-26T19:16:46.607Z,92.70
2017-09-26T19:19:15.033Z,92.80
2017-09-26T19:21:42.653Z,92.80
2017-09-26T19:24:11.063Z,93.00
2017-09-26T19:26:38.672Z,93.00
2017-09-26T19:29:07.803Z,93.00
2017-09-26T19:31:35.479Z,93.00
2017-09-26T19:34:04.872Z,93.20
2017-09-26T19:36:32.547Z,93.20
2017-09-26T19:39:01.069Z,93.20
2017-09-26T19:41:28.688Z,93.30
2017-09-26T19:43:56.840Z,93.40
2017-09-26T19:46:25.257Z,93.40
2017-09-26T19:48:52.913Z,93.40
2017-09-26T19:51:20.535Z,93.40
2017-09-26T19:53:48.335Z,93.70
2017-09-26T19:56:15.955Z,94.20
2017-09-26T19:58:43.580Z,94.50
2017-09-26T20:01:11.224Z,94.50
2017-09-26T20:03:38.848Z,94.50
2017-09-26T20:06:07.676Z,94.90
2017-09-26T20:08:35.295Z,94.90
2017-09-26T20:11:04.617Z,95.30
2017-09-26T20:13:32.403Z,95.30
2017-09-26T20:16:00.627Z,95.10
2017-09-26T20:18:28.244Z,95.00
2017-09-26T20:20:55.887Z,95.10
2017-09-26T20:23:23.455Z,95.00
2017-09-26T20:25:51.047Z,95.10
2017-09-26T20:28:18.635Z,95.20
2017-09-26T20:30:46.357Z,95.50
2017-09-26T20:33:13.959Z,95.50
2017-09-26T20:35:41.580Z,95.50
2017-09-26T20:38:09.601Z,95.60
2017-09-26T20:40:37.987Z,95.80
2017-09-26T20:43:06.371Z,95.60
2017-09-26T20:45:34.831Z,95.70
2017-09-26T20:48:03.851Z,95.80
2017-09-26T20:50:32.212Z,95.80
2017-09-26T20:53:02.228Z,95.90
2017-09-26T20:55:29.891Z,95.90
2017-09-26T20:57:57.755Z,95.90
2017-09-26T21:00:25.333Z,95.90
2017-09-26T21:02:53.668Z,95.90
2017-09-26T21:05:21.267Z,95.90
2017-09-26T21:07:49.649Z,96.10
2017-09-26T21:10:17.979Z,96.20
2017-09-26T21:12:45.635Z,96.10
2017-09-26T21:15:13.232Z,96.00
2017-09-26T21:17:40.796Z,96.00
2017-09-26T21:20:08.403Z,95.90
2017-09-26T21:22:36.025Z,95.90
2017-09-26T21:25:03.856Z,95.80
2017-09-26T21:27:31.420Z,95.90
2017-09-26T21:29:59.117Z,95.80
2017-09-26T21:32:26.768Z,95.80
2017-09-26T21:34:55.849Z,96.10
2017-09-26T21:37:23.456Z,96.10
2017-09-26T21:39:52.528Z,96.00
2017-09-26T21:42:20.184Z,96.00
2017-09-26T21:44:47.852Z,96.40
2017-09-26T21:47:16.252Z,96.10
2017-09-26T21:49:44.616Z,96.30
2017-09-26T21:52:12.193Z,96.20
2017-09-26T21:54:40.556Z,96.20
2017-09-26T21:57:08.216Z,96.10
2017-09-26T21:59:35.880Z,96.30
2017-09-26T22:02:04.568Z,96.50
2017-09-26T22:04:32.923Z,96.60
2017-09-26T22:07:03.699Z,96.50
2017-09-26T22:09:32.086Z,96.60
2017-09-26T22:12:01.347Z,96.70
2017-09-26T22:14:28.943Z,96.60
2017-09-26T22:16:57.448Z,96.70
2017-09-26T22:19:25.045Z,97.00
2017-09-26T22:21:52.646Z,96.90
2017-09-26T22:24:21.001Z,96.90
2017-09-26T22:26:48.598Z,96.90
2017-09-26T22:29:16.284Z,97.00
2017-09-26T22:31:43.885Z,97.00
2017-09-26T22:34:11.455Z,97.30
2017-09-26T22:36:39.320Z,97.30
2017-09-26T22:39:06.900Z,97.30
2017-09-26T22:41:35.245Z,97.50
2017-09-26T22:44:04.560Z,97.50
2017-09-26T22:46:32.996Z,97.50
2017-09-26T22:49:02.236Z,97.50
2017-09-26T22:51:29.900Z,97.50
2017-09-26T22:53:57.988Z,97.60
2017-09-26T22:56:26.352Z,97.50
2017-09-26T22:58:53.928Z,97.50
2017-09-26T23:01:22.396Z,97.60
2017-09-26T23:03:49.968Z,97.60
2017-09-26T23:06:18.355Z,98.00
2017-09-26T23:08:46.712Z,98.10
2017-09-26T23:11:14.318Z,98.00
2017-09-26T23:13:41.892Z,98.20
2017-09-26T23:16:09.497Z,98.40
2017-09-26T23:18:37.977Z,98.40
2017-09-26T23:21:05.848Z,98.40
2017-09-26T23:23:33.425Z,98.50
2017-09-26T23:26:02.997Z,98.60
2017-09-26T23:28:30.591Z,98.50
2017-09-26T23:30:58.929Z,98.40
2017-09-26T23:33:26.528Z,98.40
2017-09-26T23:35:54.868Z,98.30
2017-09-26T23:38:22.563Z,98.20
2017-09-26T23:40:50.142Z,98.20
2017-09-26T23:43:18.508Z,98.10
2017-09-26T23:45:46.881Z,98.20
2017-09-26T23:48:15.254Z,98.20
2017-09-26T23:50:42.831Z,98.00
2017-09-26T23:53:11.176Z,98.00
2017-09-26T23:55:38.856Z,98.00
2017-09-26T23:58:06.445Z,98.00
